createdAt,value
2018-11-07T00:04:02.214Z,6.90
2018-11-07T00:09:05.626Z,8.77
2018-11-07T00:14:09.130Z,7.83
2018-11-07T01:45:58.164Z,7.60
2018-11-07T01:51:02.249Z,7.87
2018-11-07T01:56:05.582Z,9.00
2018-11-07T03:33:11.934Z,7.00
2018-11-07T03:38:15.266Z,5.30
2018-11-07T03:43:18.591Z,9.40
2018-11-07T04:45:58.563Z,8.77
2018-11-07T04:51:01.884Z,7.53
2018-11-07T04:56:05.983Z,7.37
2018-11-07T05:35:39.263Z,4.47
2018-11-07T05:40:42.584Z,6.60
2018-11-07T05:45:46.672Z,10.00
2018-11-07T05:50:49.997Z,7.77
2018-11-07T05:55:53.318Z,9.20
2018-11-07T06:00:56.638Z,7.40
2018-11-07T06:05:59.975Z,9.90
2018-11-07T06:11:04.064Z,9.00
2018-11-07T06:16:13.159Z,7.40
2018-11-07T06:21:16.418Z,6.33
2018-11-07T06:26:19.737Z,6.67
2018-11-07T06:31:23.072Z,8.17
2018-11-07T06:36:26.395Z,6.93
2018-11-07T06:41:30.499Z,6.60
2018-11-07T06:46:34.206Z,7.57
2018-11-07T06:51:37.677Z,6.13
2018-11-07T06:56:41.947Z,9.87
2018-11-07T07:01:45.266Z,6.77
2018-11-07T07:06:48.866Z,7.13
2018-11-07T07:11:52.197Z,6.70
2018-11-07T07:16:55.514Z,6.37
2018-11-07T07:21:59.222Z,8.50
2018-11-07T07:27:02.753Z,20.03
2018-11-07T08:00:56.807Z,15.90
2018-11-07T08:06:00.139Z,11.00
2018-11-07T08:11:04.243Z,11.40
2018-11-07T09:02:07.967Z,13.03
2018-11-07T09:07:12.242Z,11.57
2018-11-07T09:12:15.845Z,12.20
2018-11-07T10:03:20.583Z,16.13
2018-11-07T10:08:24.695Z,19.37
2018-11-07T10:13:28.036Z,12.90
2018-11-07T11:04:31.994Z,11.50
2018-11-07T11:09:35.374Z,13.20
2018-11-07T11:14:38.710Z,10.27
2018-11-07T12:05:43.475Z,6.03
2018-11-07T12:10:46.804Z,8.03
2018-11-07T13:01:51.531Z,13.37
2018-11-07T13:06:54.860Z,7.57
2018-11-07T13:11:58.187Z,7.00
2018-11-07T14:03:02.687Z,12.00
2018-11-07T14:08:06.023Z,9.57
2018-11-07T14:13:09.351Z,8.73
2018-11-07T15:04:13.610Z,10.40
2018-11-07T15:09:16.942Z,11.20
2018-11-07T15:14:20.270Z,10.83
2018-11-07T15:48:10.020Z,11.63
2018-11-07T15:53:13.355Z,14.17
2018-11-07T15:58:19.235Z,12.97
2018-11-07T16:32:09.653Z,14.40
2018-11-07T16:37:12.980Z,16.70
2018-11-07T16:42:16.321Z,15.80
2018-11-07T16:47:20.498Z,17.27
2018-11-07T16:52:24.616Z,21.03
2018-11-07T16:57:27.963Z,20.23
2018-11-07T17:02:31.300Z,19.03
2018-11-07T17:07:34.636Z,18.07
2018-11-07T17:12:38.029Z,19.40
2018-11-07T17:17:41.348Z,21.17
2018-11-07T17:22:45.443Z,20.40
2018-11-07T17:27:48.787Z,18.23
2018-11-07T17:32:52.895Z,24.33
2018-11-07T17:37:56.236Z,21.37
2018-11-07T17:43:00.335Z,23.90
2018-11-07T17:48:03.757Z,26.77
2018-11-07T17:53:07.041Z,21.00
2018-11-07T17:58:18.746Z,23.73
2018-11-07T18:03:22.088Z,21.47
2018-11-07T18:08:25.436Z,25.60
2018-11-07T18:13:29.551Z,23.00
2018-11-07T18:18:33.665Z,23.50
2018-11-07T18:23:37.003Z,28.53
2018-11-07T18:28:41.104Z,22.40
2018-11-07T18:33:44.443Z,21.60
2018-11-07T18:38:48.671Z,18.77
2018-11-07T18:43:52.782Z,21.87
2018-11-07T18:48:59.772Z,20.90
2018-11-07T18:54:03.106Z,23.67
2018-11-07T18:59:06.447Z,22.10
2018-11-07T19:04:09.799Z,24.30
2018-11-07T19:09:13.126Z,22.70
2018-11-07T19:14:16.482Z,22.57
2018-11-07T19:19:20.596Z,23.10
2018-11-07T19:24:23.943Z,23.43
2018-11-07T19:29:27.283Z,23.47
2018-11-07T19:34:30.628Z,20.53
2018-11-07T19:39:33.968Z,19.37
2018-11-07T19:44:37.308Z,22.57
2018-11-07T19:49:40.648Z,22.20
2018-11-07T19:54:43.990Z,20.67
2018-11-07T19:59:48.097Z,18.67
2018-11-07T20:04:51.430Z,19.33
2018-11-07T20:09:55.531Z,22.33
2018-11-07T20:14:58.867Z,20.17
2018-11-07T20:20:02.209Z,18.33
2018-11-07T20:25:05.611Z,25.90
2018-11-07T20:30:09.723Z,20.07
2018-11-07T20:35:13.056Z,19.80
2018-11-07T20:40:16.413Z,19.33
2018-11-07T20:45:19.763Z,20.43
2018-11-07T20:50:23.102Z,19.13
2018-11-07T20:55:26.449Z,21.17
2018-11-07T21:00:29.775Z,18.70
2018-11-07T21:05:33.110Z,21.97
2018-11-07T21:10:36.465Z,18.30
2018-11-07T21:15:39.811Z,19.80
2018-11-07T21:20:43.153Z,19.97
2018-11-07T21:25:47.257Z,21.07
2018-11-07T21:30:50.639Z,18.87
2018-11-07T21:35:54.729Z,18.87
2018-11-07T21:40:58.061Z,17.43
2018-11-07T21:46:01.399Z,17.80
2018-11-07T21:51:04.750Z,20.33
2018-11-07T21:56:08.092Z,16.80
2018-11-07T22:01:14.049Z,17.70
2018-11-07T22:06:18.210Z,15.57
2018-11-07T22:11:22.333Z,16.43
2018-11-07T22:16:45.695Z,17.83
2018-11-07T22:21:49.033Z,16.50
2018-11-07T22:26:53.127Z,17.50
2018-11-07T22:31:56.460Z,17.17
2018-11-07T22:36:59.798Z,18.80
2018-11-07T22:42:03.123Z,18.23
2018-11-07T22:47:28.334Z,15.03
2018-11-07T22:52:32.539Z,16.50
2018-11-07T22:57:41.673Z,20.17
2018-11-07T23:02:45.010Z,19.77
2018-11-07T23:07:48.349Z,21.73
2018-11-07T23:12:51.779Z,16.67
2018-11-07T23:17:55.119Z,16.63
2018-11-07T23:22:58.444Z,15.60
2018-11-07T23:28:12.474Z,19.77
2018-11-07T23:33:15.804Z,17.70
2018-11-07T23:38:36.562Z,15.20
2018-11-07T23:43:39.911Z,16.10
2018-11-07T23:48:43.251Z,16.40
2018-11-07T23:53:46.579Z,16.00
2018-11-07T23:58:49.911Z,16.87
